createdAt,value
2016-06-06T08:40:04.964Z,7056
2016-06-06T08:40:17.808Z,6856
2016-06-06T08:41:17.842Z,7184
2016-06-06T08:42:17.877Z,8188
2016-06-06T08:43:17.911Z,8648
2016-06-06T08:44:17.819Z,8520
2016-06-06T08:45:17.947Z,7608
2016-06-06T08:46:17.965Z,7632
2016-06-06T08:47:17.983Z,7936
2016-06-06T08:48:17.877Z,8672
2016-06-06T08:49:18.021Z,9176
2016-06-06T08:50:17.913Z,9020
2016-06-06T08:51:18.088Z,8908
2016-06-06T08:52:18.122Z,9168
2016-06-06T08:53:18.124Z,9208
2016-06-06T08:54:18.002Z,9036
2016-06-06T08:55:18.162Z,8996
2016-06-06T08:56:18.210Z,8780
2016-06-06T08:57:18.229Z,8920
2016-06-06T08:58:18.247Z,8792
2016-06-06T08:59:18.126Z,7948
2016-06-06T09:00:18.018Z,8468
2016-06-06T09:01:18.318Z,7860
2016-06-06T09:02:18.368Z,8364
2016-06-06T09:03:18.370Z,7768
2016-06-06T09:04:18.389Z,6792
2016-06-06T09:05:18.267Z,8584
2016-06-06T09:06:18.456Z,8116
2016-06-06T09:07:18.459Z,7868
2016-06-06T09:08:18.508Z,7592
2016-06-06T09:09:18.528Z,6664
2016-06-06T09:10:18.545Z,6216
2016-06-06T09:11:18.580Z,6416
2016-06-06T09:12:18.614Z,6844
2016-06-06T09:13:18.616Z,7760
2016-06-06T09:14:18.650Z,6128
2016-06-06T09:15:18.652Z,6268
2016-06-06T09:16:18.686Z,7724
2016-06-06T09:17:18.705Z,7064
2016-06-06T09:18:18.739Z,8008
2016-06-06T09:19:18.741Z,6352
2016-06-06T09:20:18.775Z,6452
2016-06-06T09:21:18.810Z,5480
2016-06-06T09:22:18.843Z,6176
2016-06-06T09:23:18.846Z,7744
2016-06-06T09:24:18.880Z,7496
2016-06-06T09:25:18.929Z,7760
2016-06-06T09:26:18.932Z,7692
2016-06-06T09:27:18.935Z,7688
2016-06-06T09:28:18.985Z,7680
2016-06-06T09:29:19.393Z,7120
2016-06-06T09:30:19.021Z,6076
2016-06-06T09:31:19.054Z,7620
2016-06-06T09:32:19.089Z,7580
2016-06-06T09:33:19.123Z,7540
2016-06-06T09:34:19.142Z,6872
2016-06-06T09:35:19.129Z,7352
2016-06-06T09:36:19.178Z,7244
2016-06-06T09:37:19.181Z,7396
2016-06-06T09:38:19.058Z,7284
2016-06-06T09:39:19.280Z,7280
2016-06-06T09:40:19.126Z,7392
2016-06-06T09:41:19.286Z,7388
2016-06-06T09:42:19.319Z,7300
2016-06-06T09:43:19.337Z,7320
2016-06-06T09:44:20.433Z,7344
2016-06-06T09:45:19.390Z,7380
2016-06-06T09:46:19.424Z,7400
2016-06-06T09:47:19.442Z,7336
2016-06-06T09:48:19.475Z,7344
2016-06-06T09:49:19.478Z,7360
2016-06-06T09:50:19.527Z,7420
2016-06-06T09:51:19.562Z,7448
2016-06-06T09:52:19.549Z,7432
2016-06-06T09:53:19.599Z,7428
2016-06-06T09:54:19.617Z,7436
2016-06-06T09:55:19.651Z,7448
2016-06-06T09:56:19.654Z,7460
2016-06-06T09:57:19.688Z,7484
2016-06-06T09:58:19.737Z,7508
2016-06-06T09:59:19.755Z,7504
2016-06-06T10:00:19.758Z,7496
2016-06-06T10:01:19.777Z,7484
2016-06-06T10:02:19.795Z,7488
2016-06-06T10:03:19.829Z,7448
2016-06-06T10:04:19.862Z,7480
2016-06-06T10:05:19.896Z,7484
2016-06-06T10:06:19.915Z,7508
2016-06-06T10:07:19.918Z,7540
2016-06-06T10:08:19.951Z,7572
2016-06-06T10:09:19.970Z,7592
2016-06-06T10:10:20.003Z,7620
2016-06-06T10:11:20.023Z,7632
2016-06-06T10:12:20.056Z,7692
2016-06-06T10:13:20.058Z,7732
2016-06-06T10:14:19.968Z,7816
2016-06-06T10:15:19.986Z,7856
2016-06-06T10:16:20.161Z,7824
2016-06-06T10:17:20.178Z,7852
2016-06-06T10:18:20.197Z,7840
2016-06-06T10:19:20.231Z,7840
2016-06-06T10:20:20.250Z,7900
2016-06-06T10:21:20.268Z,7968
2016-06-06T10:22:20.302Z,8024
2016-06-06T10:23:20.320Z,8024
2016-06-06T10:24:20.369Z,8116
2016-06-06T10:25:20.357Z,8224
2016-06-06T10:26:20.422Z,8412
2016-06-06T10:27:20.424Z,8676
2016-06-06T10:28:20.457Z,8908
2016-06-06T10:29:20.368Z,9100
2016-06-06T10:30:20.495Z,9144
2016-06-06T10:31:20.529Z,9100
2016-06-06T10:32:20.562Z,9040
2016-06-06T10:33:20.581Z,9172
2016-06-06T10:34:20.631Z,9236
2016-06-06T10:35:20.618Z,9240
2016-06-06T10:36:20.651Z,9384
2016-06-06T10:37:20.670Z,9476
2016-06-06T10:38:20.734Z,9584
2016-06-06T10:39:20.738Z,9560
2016-06-06T10:40:20.740Z,9388
2016-06-06T10:41:20.775Z,9312
2016-06-06T10:42:20.839Z,9240
2016-06-06T10:43:20.842Z,9184
2016-06-06T10:44:20.986Z,9296
2016-06-06T10:45:20.879Z,9416
2016-06-06T10:46:20.897Z,9464
2016-06-06T10:47:20.947Z,9536
2016-06-06T10:48:20.966Z,9576
2016-06-06T10:49:20.983Z,9616
2016-06-06T10:50:21.002Z,9720
2016-06-06T10:51:21.020Z,9780
2016-06-06T10:52:21.055Z,9916
2016-06-06T10:53:21.072Z,9956
2016-06-06T10:54:20.966Z,7472
2016-06-06T10:55:21.125Z,7340
2016-06-06T10:56:21.174Z,7268
2016-06-06T10:57:21.177Z,7272
2016-06-06T10:58:21.210Z,7424
2016-06-06T10:59:21.463Z,10324
2016-06-06T11:00:21.513Z,10660
2016-06-06T11:01:21.313Z,10876
2016-06-06T11:02:21.315Z,10884
2016-06-06T11:03:21.334Z,11024
2016-06-06T11:04:21.196Z,11048
2016-06-06T11:05:21.387Z,11024
2016-06-06T11:06:21.405Z,11020
2016-06-06T11:07:21.282Z,10904
2016-06-06T11:08:21.456Z,10780
2016-06-06T11:09:21.475Z,10812
2016-06-06T11:10:21.525Z,10888
2016-06-06T11:11:21.543Z,10904
2016-06-06T11:12:21.592Z,10824
2016-06-06T11:13:21.611Z,10496
2016-06-06T11:14:21.473Z,10160
2016-06-06T11:15:22.209Z,7900
2016-06-06T11:16:21.666Z,7724
2016-06-06T11:17:21.683Z,7620
2016-06-06T11:18:21.734Z,7476
2016-06-06T11:19:21.752Z,7392
2016-06-06T11:20:21.770Z,7264
2016-06-06T11:21:21.805Z,7260
2016-06-06T11:22:21.822Z,9296
2016-06-06T11:23:21.888Z,10056
2016-06-06T11:24:21.891Z,10020
2016-06-06T11:25:21.893Z,9964
2016-06-06T11:26:21.927Z,9924
2016-06-06T11:27:21.961Z,7236
2016-06-06T11:28:21.979Z,7020
2016-06-06T11:29:22.341Z,6860
2016-06-06T11:30:21.735Z,7696
2016-06-06T11:31:22.065Z,9580
2016-06-06T11:32:21.912Z,9832
2016-06-06T11:33:22.102Z,10012
2016-06-06T11:34:22.151Z,10148
2016-06-06T11:35:22.170Z,10244
2016-06-06T11:36:22.188Z,10536
2016-06-06T11:37:36.269Z,10968
2016-06-06T11:38:22.240Z,11088
2016-06-06T11:39:22.274Z,11096
2016-06-06T11:40:22.276Z,11224
2016-06-06T11:41:22.154Z,11460
2016-06-06T11:42:22.329Z,11488
2016-06-06T11:43:22.364Z,11520
2016-06-06T11:44:22.241Z,11628
2016-06-06T11:45:22.275Z,11688
2016-06-06T11:46:22.450Z,11732
2016-06-06T11:47:22.452Z,11788
2016-06-06T11:48:22.502Z,11744
2016-06-06T11:49:22.505Z,11764
2016-06-06T11:50:22.539Z,11800
2016-06-06T11:51:22.556Z,11856
2016-06-06T11:52:22.591Z,11840
2016-06-06T11:53:22.609Z,11648
2016-06-06T11:54:22.502Z,11528
2016-06-06T11:55:22.661Z,11464
2016-06-06T11:56:22.711Z,11384
2016-06-06T11:57:22.572Z,11244
2016-06-06T11:58:22.779Z,11316
2016-06-06T11:59:22.781Z,11584
2016-06-06T12:00:22.894Z,11788
2016-06-06T12:01:22.849Z,11932
2016-06-06T12:02:22.867Z,12028
2016-06-06T12:03:22.886Z,12084
2016-06-06T12:04:22.921Z,12040
2016-06-06T12:05:22.938Z,11952
2016-06-06T12:06:22.971Z,11860
2016-06-06T12:07:22.991Z,11936
2016-06-06T12:08:23.071Z,12132
2016-06-06T12:09:23.042Z,12136
2016-06-06T12:10:23.093Z,12048
2016-06-06T12:11:23.095Z,11924
2016-06-06T12:12:23.145Z,11568
2016-06-06T12:13:23.179Z,8648
2016-06-06T12:14:23.493Z,7732
2016-06-06T12:15:23.996Z,8368
2016-06-06T12:16:23.234Z,10716
2016-06-06T12:17:23.283Z,10936
2016-06-06T12:18:23.301Z,11132
2016-06-06T12:19:23.320Z,8648
2016-06-06T12:20:23.353Z,11272
2016-06-06T12:21:23.387Z,10872
2016-06-06T12:22:23.422Z,8084
2016-06-06T12:23:23.127Z,11972
2016-06-06T12:24:23.474Z,9720
2016-06-06T12:25:23.538Z,8656
2016-06-06T12:26:23.510Z,8740
2016-06-06T12:27:23.528Z,8940
2016-06-06T12:28:23.577Z,9076
2016-06-06T12:29:23.877Z,12564
2016-06-06T12:30:24.599Z,12396
2016-06-06T12:31:23.633Z,12460
2016-06-06T12:32:23.667Z,12400
2016-06-06T12:33:23.685Z,8880
2016-06-06T12:34:23.718Z,8512
2016-06-06T12:35:23.738Z,8564
2016-06-06T12:36:23.756Z,8752
2016-06-06T12:37:23.774Z,9012
2016-06-06T12:38:23.839Z,8484
2016-06-06T12:39:23.857Z,8368
2016-06-06T12:40:23.876Z,8340
2016-06-06T12:41:23.895Z,8300
2016-06-06T12:42:23.912Z,8300
2016-06-06T12:43:23.947Z,8088
2016-06-06T12:44:24.653Z,7872
2016-06-06T12:45:23.983Z,7660
2016-06-06T12:46:24.033Z,7560
2016-06-06T12:47:24.036Z,7584
2016-06-06T12:48:24.070Z,7672
2016-06-06T12:49:24.103Z,7820
2016-06-06T12:50:24.137Z,7960
2016-06-06T12:51:24.156Z,8064
2016-06-06T12:52:24.174Z,8204
2016-06-06T12:53:24.192Z,8256
2016-06-06T12:54:24.226Z,8380
2016-06-06T12:55:24.104Z,8520
2016-06-06T12:56:24.278Z,8536
2016-06-06T12:57:24.312Z,8392
2016-06-06T12:58:24.330Z,8324
2016-06-06T12:59:24.693Z,8460
2016-06-06T13:00:24.258Z,8240
2016-06-06T13:01:24.417Z,7880
2016-06-06T13:02:24.435Z,7500
2016-06-06T13:03:24.469Z,7304
2016-06-06T13:04:24.471Z,7180
2016-06-06T13:05:24.506Z,7232
2016-06-06T13:06:24.524Z,7224
2016-06-06T13:07:24.573Z,7312
2016-06-06T13:08:24.593Z,7348
2016-06-06T13:09:24.610Z,7384
2016-06-06T13:10:24.644Z,7412
2016-06-06T13:11:24.662Z,7344
2016-06-06T13:12:24.696Z,7404
2016-06-06T13:13:24.715Z,7508
2016-06-06T13:14:25.952Z,7848
2016-06-06T13:15:25.267Z,11684
2016-06-06T13:16:24.785Z,11820
2016-06-06T13:17:24.834Z,11872
2016-06-06T13:18:24.837Z,11996
2016-06-06T13:19:24.872Z,12048
2016-06-06T13:20:24.890Z,10724
2016-06-06T13:21:38.830Z,11848
2016-06-06T13:22:24.973Z,11980
2016-06-06T13:23:24.976Z,11816
2016-06-06T13:24:24.994Z,10704
2016-06-06T13:25:25.013Z,8520
2016-06-06T13:26:25.047Z,10352
2016-06-06T13:27:39.158Z,8336
2016-06-06T13:28:25.099Z,8556
2016-06-06T13:29:25.320Z,8160
2016-06-06T13:30:25.916Z,7892
2016-06-06T13:31:25.185Z,7772
2016-06-06T13:32:25.203Z,7688
2016-06-06T13:33:25.221Z,7716
2016-06-06T13:34:25.271Z,9732
2016-06-06T13:35:25.274Z,7972
2016-06-06T13:36:25.293Z,8024
2016-06-06T13:37:25.341Z,8512
2016-06-06T13:38:25.360Z,8312
2016-06-06T13:39:25.394Z,8188
2016-06-06T13:40:25.396Z,11052
2016-06-06T13:41:25.446Z,11824
2016-06-06T13:42:25.464Z,11140
2016-06-06T13:43:25.499Z,11468
2016-06-06T13:44:25.674Z,11944
2016-06-06T13:45:26.754Z,12144
2016-06-06T13:46:28.600Z,12044
2016-06-06T13:47:25.604Z,10036
2016-06-06T13:48:25.637Z,12196
2016-06-06T13:49:25.639Z,10196
2016-06-06T13:50:25.658Z,7900
2016-06-06T13:51:25.536Z,7892
2016-06-06T13:52:25.914Z,9420
2016-06-06T13:53:25.744Z,8908
2016-06-06T13:54:25.762Z,9688
2016-06-06T13:55:25.797Z,12240
2016-06-06T13:56:25.689Z,12200
2016-06-06T13:57:25.708Z,12276
2016-06-06T13:59:39.963Z,12416
2016-06-06T14:00:26.419Z,11832
2016-06-06T14:01:26.031Z,11496
2016-06-06T14:02:25.972Z,11156
2016-06-06T14:03:26.021Z,12336
2016-06-06T14:04:26.039Z,12324
2016-06-06T14:05:26.058Z,12196
2016-06-06T14:06:26.108Z,9988
2016-06-06T14:08:26.019Z,12280
2016-06-06T14:09:27.115Z,12424
2016-06-06T14:10:26.446Z,12516
2016-06-06T14:11:26.262Z,12456
2016-06-06T14:12:26.280Z,12444
2016-06-06T14:13:26.298Z,12436
2016-06-06T14:14:26.191Z,12432
2016-06-06T14:15:27.038Z,12300
2016-06-06T14:16:26.369Z,12412
2016-06-06T14:17:26.418Z,8672
2016-06-06T14:18:26.436Z,9292
2016-06-06T14:19:26.470Z,10776
2016-06-06T14:20:26.504Z,10484
2016-06-06T14:21:26.522Z,12644
2016-06-06T14:22:26.541Z,12496
2016-06-06T14:23:26.575Z,8508
2016-06-06T14:24:26.593Z,8264
2016-06-06T14:25:26.628Z,8284
2016-06-06T14:26:26.661Z,8264
2016-06-06T14:27:26.694Z,8232
2016-06-06T14:28:26.729Z,8248
2016-06-06T14:29:27.200Z,8204
2016-06-06T14:30:27.296Z,8152
2016-06-06T14:31:26.784Z,8132
2016-06-06T14:32:26.833Z,8136
2016-06-06T14:33:26.852Z,8132
2016-06-06T14:34:26.869Z,8068
2016-06-06T14:35:26.904Z,8048
2016-06-06T14:36:26.782Z,8036
2016-06-06T14:37:26.800Z,8000
2016-06-06T14:38:26.974Z,8008
2016-06-06T14:39:26.994Z,8024
2016-06-06T14:40:27.027Z,8056
2016-06-06T14:41:27.045Z,7980
2016-06-06T14:42:27.079Z,7832
2016-06-06T14:43:27.082Z,7728
2016-06-06T14:44:27.038Z,7772
2016-06-06T14:45:27.431Z,7776
2016-06-06T14:46:27.027Z,7764
2016-06-06T14:47:27.201Z,7736
2016-06-06T14:48:27.252Z,7632
2016-06-06T14:49:27.285Z,7560
2016-06-06T14:50:27.287Z,7472
2016-06-06T14:51:27.322Z,7196
2016-06-06T14:52:27.340Z,7032
2016-06-06T14:53:27.389Z,7196
2016-06-06T14:54:27.392Z,9592
2016-06-06T14:55:27.411Z,6512
2016-06-06T14:56:27.445Z,6476
2016-06-06T14:57:27.494Z,6396
2016-06-06T14:58:27.514Z,6436
2016-06-06T14:59:27.406Z,7016
2016-06-06T15:00:27.409Z,8056
2016-06-06T15:01:27.583Z,6808
2016-06-06T15:02:27.617Z,6416
2016-06-06T15:03:27.636Z,6276
2016-06-06T15:04:27.654Z,6192
2016-06-06T15:05:27.672Z,6200
2016-06-06T15:06:27.722Z,6228
2016-06-06T15:07:27.740Z,6272
2016-06-06T15:08:27.603Z,6304
2016-06-06T15:09:27.793Z,6320
2016-06-06T15:10:27.810Z,6312
2016-06-06T15:11:27.688Z,6132
2016-06-06T15:12:27.863Z,5976
2016-06-06T15:13:27.896Z,5888
2016-06-06T15:14:28.571Z,5804
2016-06-06T15:15:28.371Z,5680
2016-06-06T15:16:27.967Z,5616
2016-06-06T15:17:28.001Z,5524
2016-06-06T15:18:27.848Z,5440
2016-06-06T15:19:28.038Z,5384
2016-06-06T15:20:27.916Z,5376
2016-06-06T15:21:28.106Z,5316
2016-06-06T15:22:28.124Z,5248
2016-06-06T15:23:28.143Z,5204
2016-06-06T15:24:28.177Z,5180
2016-06-06T15:25:28.211Z,5168
2016-06-06T15:26:28.228Z,5172
2016-06-06T15:27:28.247Z,5176
2016-06-06T15:28:28.281Z,5180
2016-06-06T15:29:38.143Z,5216
2016-06-06T15:30:28.800Z,5240
2016-06-06T15:31:28.350Z,5220
2016-06-06T15:32:28.383Z,5208
2016-06-06T15:33:28.245Z,5252
2016-06-06T15:34:28.419Z,5384
2016-06-06T15:35:28.454Z,5476
2016-06-06T15:36:28.472Z,5568
2016-06-06T15:37:28.491Z,5548
2016-06-06T15:38:28.524Z,5484
2016-06-06T15:39:28.558Z,5544
2016-06-06T15:40:28.561Z,5564
2016-06-06T15:41:28.610Z,5608
2016-06-06T15:42:28.613Z,5572
2016-06-06T15:43:28.662Z,5636
2016-06-06T15:44:30.168Z,5812
2016-06-06T15:45:42.671Z,6628
2016-06-06T15:46:28.733Z,6584
2016-06-06T15:47:28.736Z,5792
2016-06-06T15:48:28.770Z,5640
2016-06-06T15:49:28.804Z,5544
2016-06-06T15:50:28.838Z,5500
2016-06-06T15:51:28.841Z,5452
2016-06-06T15:52:28.874Z,5412
2016-06-06T15:53:28.893Z,5372
2016-06-06T15:54:28.926Z,5316
2016-06-06T15:55:28.929Z,5248
2016-06-06T15:56:28.823Z,5152
2016-06-06T15:57:28.997Z,5056
2016-06-06T15:58:29.015Z,4988
2016-06-06T15:59:29.237Z,4956
2016-06-06T16:00:29.131Z,4940
2016-06-06T16:01:29.101Z,4960
2016-06-06T16:02:29.120Z,5040
2016-06-06T16:03:29.139Z,5128
2016-06-06T16:04:29.188Z,5272
2016-06-06T16:05:29.206Z,5464
2016-06-06T16:06:29.053Z,5664
2016-06-06T16:07:29.242Z,5856
2016-06-06T16:08:29.292Z,6040
2016-06-06T16:09:29.295Z,6256
2016-06-06T16:10:29.330Z,6488
2016-06-06T16:11:29.347Z,6688
2016-06-06T16:12:29.366Z,6916
2016-06-06T16:13:29.400Z,7132
2016-06-06T16:14:29.497Z,7348
2016-06-06T16:15:29.577Z,7592
2016-06-06T16:16:29.471Z,7880
2016-06-06T16:17:29.348Z,8192
2016-06-06T16:18:29.366Z,8604
2016-06-06T16:19:43.622Z,8640
2016-06-06T16:20:29.419Z,8772
2016-06-06T16:21:29.609Z,8944
2016-06-06T16:22:29.627Z,9200
2016-06-06T16:23:29.661Z,10772
2016-06-06T16:24:29.679Z,10920
2016-06-06T16:25:29.713Z,10788
2016-06-06T16:26:29.716Z,9840
2016-06-06T16:27:29.781Z,10100
2016-06-06T16:28:29.831Z,10952
2016-06-06T16:29:30.865Z,11544
2016-06-06T16:30:30.383Z,11548
2016-06-06T16:31:29.854Z,11788
2016-06-06T16:32:29.873Z,11996
2016-06-06T16:33:43.972Z,12392
2016-06-06T16:34:29.909Z,12816
2016-06-06T16:35:29.943Z,12804
2016-06-06T16:36:29.993Z,12628
2016-06-06T16:37:29.995Z,12452
2016-06-06T16:38:30.030Z,12112
2016-06-06T16:39:30.064Z,11068
2016-06-06T16:40:30.081Z,10204
2016-06-06T16:41:30.116Z,9904
2016-06-06T16:42:30.134Z,9760
2016-06-06T16:43:30.157Z,9736
2016-06-06T16:44:30.227Z,9780
2016-06-06T16:45:30.094Z,9784
2016-06-06T16:46:30.258Z,9596
2016-06-06T16:47:30.297Z,9608
2016-06-06T16:48:30.302Z,9564
2016-06-06T16:49:30.181Z,9416
2016-06-06T16:50:30.372Z,9124
2016-06-06T16:51:30.392Z,8828
2016-06-06T16:52:30.428Z,8520
2016-06-06T16:53:30.463Z,8156
2016-06-06T16:54:30.466Z,7860
2016-06-06T16:55:30.517Z,7648
2016-06-06T16:56:30.535Z,7504
2016-06-06T16:57:30.555Z,7424
2016-06-06T16:58:30.574Z,7408
2016-06-06T16:59:30.310Z,7460
2016-06-06T17:00:30.642Z,7548
2016-06-06T17:01:30.676Z,7508
2016-06-06T17:02:30.695Z,7356
2016-06-06T17:03:30.729Z,7152
2016-06-06T17:04:30.731Z,6900
2016-06-06T17:05:30.750Z,6596
2016-06-06T17:06:30.768Z,6328
2016-06-06T17:07:30.803Z,6060
2016-06-06T17:08:30.680Z,5908
2016-06-06T17:09:30.870Z,5828
2016-06-06T17:10:30.889Z,5740
2016-06-06T17:11:30.891Z,5680
2016-06-06T17:12:30.941Z,5552
2016-06-06T17:13:30.959Z,5436
2016-06-06T17:14:31.008Z,5284
2016-06-06T17:15:31.668Z,5104
2016-06-06T17:16:31.030Z,4904
2016-06-06T17:17:31.048Z,4704
2016-06-06T17:18:31.082Z,4512
2016-06-06T17:19:31.116Z,4316
2016-06-06T17:20:31.134Z,4136
2016-06-06T17:21:31.168Z,3952
2016-06-06T17:22:31.171Z,3800
2016-06-06T17:23:31.190Z,3652
2016-06-06T17:24:31.254Z,3508
2016-06-06T17:25:31.273Z,3388
2016-06-06T17:26:31.290Z,3360
2016-06-06T17:27:31.137Z,3368
2016-06-06T17:28:31.374Z,3284
2016-06-06T17:29:31.892Z,3232
2016-06-06T17:30:32.146Z,3204
2016-06-06T17:31:31.414Z,3188
2016-06-06T17:32:31.431Z,3196
2016-06-06T17:33:31.467Z,3224
2016-06-06T17:34:31.469Z,3240
2016-06-06T17:35:31.517Z,3252
2016-06-06T17:36:31.349Z,3260
2016-06-06T17:37:31.570Z,3272
2016-06-06T17:38:31.572Z,3324
2016-06-06T17:39:31.608Z,3384
2016-06-06T17:40:31.469Z,3460
2016-06-06T17:41:31.658Z,3560
2016-06-06T17:42:31.678Z,3636
2016-06-06T17:43:31.711Z,3676
2016-06-06T17:44:31.589Z,3660
2016-06-06T17:45:32.169Z,3612
2016-06-06T17:46:31.845Z,3548
2016-06-06T17:47:31.800Z,3472
2016-06-06T17:48:31.818Z,3400
2016-06-06T17:49:31.697Z,3352
2016-06-06T17:50:31.871Z,3316
2016-06-06T17:51:31.889Z,3292
2016-06-06T17:52:31.923Z,3284
2016-06-06T17:53:31.941Z,3276
2016-06-06T17:54:31.976Z,3276
2016-06-06T17:55:31.993Z,3284
2016-06-06T17:56:31.856Z,3288
2016-06-06T17:57:32.046Z,3284
2016-06-06T17:58:32.048Z,3288
2016-06-06T17:59:32.911Z,3284
2016-06-06T18:00:32.117Z,3288
2016-06-06T18:01:32.135Z,3292
2016-06-06T18:02:32.169Z,3300
2016-06-06T18:03:32.234Z,3308
2016-06-06T18:04:32.206Z,3324
2016-06-06T18:05:32.270Z,3348
2016-06-06T18:06:32.101Z,3380
2016-06-06T18:07:32.276Z,3412
2016-06-06T18:08:32.310Z,3448
2016-06-06T18:09:32.328Z,3488
2016-06-06T18:10:32.378Z,3560
2016-06-06T18:11:32.396Z,3588
2016-06-06T18:12:32.414Z,3580
2016-06-06T18:13:32.433Z,3576
2016-06-06T18:14:32.952Z,3564
2016-06-06T18:15:33.110Z,3540
2016-06-06T18:16:32.347Z,3520
2016-06-06T18:17:32.538Z,3472
2016-06-06T18:18:32.555Z,3420
2016-06-06T18:19:32.590Z,3364
2016-06-06T18:20:32.608Z,3320
2016-06-06T18:21:32.627Z,3288
2016-06-06T18:22:32.660Z,3260
2016-06-06T18:23:32.679Z,3240
2016-06-06T18:24:32.696Z,3216
2016-06-06T18:25:32.732Z,3204
2016-06-06T18:26:32.608Z,3196
2016-06-06T18:27:32.782Z,3220
2016-06-06T18:28:32.801Z,3196
2016-06-06T18:29:33.460Z,3204
2016-06-06T18:30:32.540Z,3232
2016-06-06T18:31:32.716Z,3304
2016-06-06T18:32:32.875Z,3876
2016-06-06T18:33:32.752Z,3996
2016-06-06T18:34:32.942Z,3244
2016-06-06T18:35:32.961Z,3172
2016-06-06T18:36:32.995Z,3116
2016-06-06T18:37:32.997Z,3084
2016-06-06T18:38:33.031Z,3064
2016-06-06T18:39:33.065Z,3036
2016-06-06T18:40:33.114Z,2996
2016-06-06T18:41:33.102Z,2964
2016-06-06T18:42:33.136Z,2948
2016-06-06T18:43:33.154Z,2924
2016-06-06T18:44:33.204Z,2876
2016-06-06T18:45:33.956Z,2804
2016-06-06T18:46:33.069Z,2724
2016-06-06T18:47:33.274Z,2636
2016-06-06T18:48:33.293Z,2556
2016-06-06T18:49:33.311Z,2480
2016-06-06T18:50:33.313Z,2396
2016-06-06T18:51:33.363Z,2304
2016-06-06T18:52:33.382Z,2204
2016-06-06T18:53:33.416Z,2100
2016-06-06T18:54:33.434Z,1988
2016-06-06T18:55:33.451Z,1880
2016-06-06T18:56:33.502Z,1776
2016-06-06T18:57:33.488Z,1680
2016-06-06T18:58:33.538Z,1580
2016-06-06T18:59:33.573Z,1488
2016-06-06T19:00:34.934Z,1428
2016-06-06T19:01:33.592Z,1396
2016-06-06T19:02:33.611Z,1384
2016-06-06T19:03:33.489Z,1392
2016-06-06T19:04:33.507Z,1396
2016-06-06T19:05:33.541Z,1388
2016-06-06T19:06:33.716Z,1364
2016-06-06T19:07:33.734Z,1332
2016-06-06T19:08:33.768Z,1296
2016-06-06T19:09:33.630Z,1260
2016-06-06T19:10:33.820Z,1228
2016-06-06T19:11:33.667Z,1192
2016-06-06T19:12:33.858Z,1152
2016-06-06T19:13:33.875Z,1116
2016-06-06T19:14:33.925Z,1072
2016-06-06T19:15:33.927Z,1032
2016-06-06T19:16:34.947Z,992
2016-06-06T19:17:33.980Z,956
2016-06-06T19:18:33.999Z,908
2016-06-06T19:19:33.860Z,864
2016-06-06T19:20:34.035Z,816
2016-06-06T19:21:34.069Z,772
2016-06-06T19:22:34.088Z,720
2016-06-06T19:23:34.121Z,672
2016-06-06T19:24:34.140Z,620
2016-06-06T19:25:34.157Z,580
2016-06-06T19:26:34.176Z,540
2016-06-06T19:27:34.210Z,500
2016-06-06T19:28:34.243Z,472
2016-06-06T19:29:34.106Z,440
2016-06-06T19:30:34.296Z,420
2016-06-06T19:31:34.315Z,400
2016-06-06T19:32:34.332Z,380
2016-06-06T19:33:34.351Z,364
2016-06-06T19:34:35.042Z,340
2016-06-06T19:35:34.544Z,316
2016-06-06T19:36:34.265Z,292
2016-06-06T19:37:34.471Z,268
2016-06-06T19:38:34.318Z,244
2016-06-06T19:39:34.492Z,224
2016-06-06T19:40:34.511Z,204
2016-06-06T19:41:34.529Z,188
2016-06-06T19:42:34.547Z,172
2016-06-06T19:43:34.581Z,156
2016-06-06T19:44:34.615Z,144
2016-06-06T19:45:34.633Z,132
2016-06-06T19:46:34.636Z,124
2016-06-06T19:47:34.670Z,116
2016-06-06T19:48:35.172Z,108
2016-06-06T19:49:36.347Z,96
2016-06-06T19:50:34.584Z,92
2016-06-06T19:51:34.758Z,88
2016-06-06T19:52:34.636Z,80
2016-06-06T19:53:34.811Z,72
2016-06-06T19:54:34.829Z,64
2016-06-06T19:55:34.863Z,60
2016-06-06T19:56:34.882Z,56
2016-06-06T19:57:34.916Z,48
2016-06-06T19:58:34.934Z,44
2016-06-06T19:59:34.952Z,40
2016-06-06T20:00:34.970Z,36
2016-06-06T20:01:34.989Z,32
2016-06-06T20:02:35.023Z,28
2016-06-06T20:03:35.040Z,24
2016-06-06T20:04:35.372Z,24
2016-06-06T20:05:35.657Z,20
2016-06-06T20:06:35.095Z,20
2016-06-06T20:07:35.131Z,16
2016-06-06T20:08:35.148Z,12
2016-06-06T20:09:35.182Z,12
2016-06-06T20:10:35.200Z,8
2016-06-06T20:11:35.219Z,8
2016-06-06T20:12:35.237Z,8
2016-06-06T20:13:35.271Z,4
2016-06-06T20:14:35.274Z,8
2016-06-06T20:15:35.152Z,8
2016-06-06T20:16:35.341Z,8
2016-06-06T20:17:35.360Z,4
2016-06-06T20:18:35.394Z,4
2016-06-06T20:19:35.397Z,4
2016-06-06T20:20:35.446Z,4
2016-06-06T20:21:35.278Z,4
2016-06-06T20:22:35.467Z,0
2016-06-06T20:23:35.501Z,4
2016-06-06T20:24:35.519Z,4
2016-06-06T20:25:35.538Z,0
2016-06-06T20:26:35.571Z,0
2016-06-06T20:27:35.590Z,4
2016-06-06T20:28:35.593Z,0
2016-06-06T20:29:35.627Z,0
2016-06-06T20:30:35.629Z,0
2016-06-06T20:31:35.663Z,4
2016-06-06T20:32:35.713Z,4
2016-06-06T20:33:35.716Z,0
2016-06-06T20:34:35.719Z,0
2016-06-06T20:35:36.081Z,0
2016-06-06T20:36:35.629Z,0
2016-06-06T20:37:35.820Z,0
2016-06-06T20:38:35.839Z,0
2016-06-06T20:39:35.841Z,0
2016-06-06T20:40:35.875Z,0
2016-06-06T20:41:35.893Z,0
2016-06-06T20:42:35.912Z,0
2016-06-06T20:43:35.945Z,0
2016-06-06T20:44:35.964Z,0
2016-06-06T20:45:35.825Z,0
2016-06-06T20:46:36.000Z,0
2016-06-06T20:47:36.034Z,0
2016-06-06T20:48:36.053Z,0
2016-06-06T20:49:36.086Z,0
2016-06-06T20:50:36.589Z,0
2016-06-06T20:51:36.107Z,0
2016-06-06T20:52:36.157Z,0
2016-06-06T20:53:36.144Z,0
2016-06-06T20:54:36.178Z,0
2016-06-06T20:55:36.055Z,0
2016-06-06T20:56:36.215Z,0
2016-06-06T20:57:36.249Z,0
2016-06-06T20:58:36.268Z,0
2016-06-06T20:59:36.301Z,0
2016-06-06T21:00:36.304Z,0
2016-06-06T21:01:36.354Z,0
2016-06-06T21:02:36.357Z,0
2016-06-06T21:03:36.407Z,0
2016-06-06T21:04:36.408Z,0
2016-06-06T21:05:36.129Z,0
2016-06-06T21:06:36.446Z,0
2016-06-06T21:07:36.479Z,0
2016-06-06T21:08:36.512Z,0
2016-06-06T21:09:36.515Z,0
2016-06-06T21:10:36.534Z,0
2016-06-06T21:11:36.396Z,0
2016-06-06T21:12:36.586Z,0
2016-06-06T21:13:36.604Z,0
2016-06-06T21:14:36.623Z,0
2016-06-06T21:15:36.657Z,0
2016-06-06T21:16:36.519Z,0
2016-06-06T21:17:36.694Z,0
2016-06-06T21:18:36.571Z,0
2016-06-06T21:19:36.746Z,0
2016-06-06T21:20:36.763Z,0
2016-06-06T21:21:36.782Z,0
2016-06-06T21:22:36.785Z,0
2016-06-06T21:23:36.803Z,0
2016-06-06T21:24:36.852Z,0
2016-06-06T21:25:36.871Z,0
2016-06-06T21:26:36.874Z,0
2016-06-06T21:27:36.908Z,0
2016-06-06T21:28:36.926Z,0
2016-06-06T21:29:36.944Z,0
2016-06-06T21:30:36.979Z,0
2016-06-06T21:31:36.996Z,0
2016-06-06T21:32:36.999Z,0
2016-06-06T21:33:37.032Z,0
2016-06-06T21:34:36.910Z,0
2016-06-06T21:35:39.085Z,0
2016-06-06T21:36:37.104Z,0
2016-06-06T21:37:37.122Z,0
2016-06-06T21:38:37.140Z,0
2016-06-06T21:39:37.159Z,0
2016-06-06T21:40:37.193Z,0
2016-06-06T21:41:37.211Z,0
2016-06-06T21:42:37.245Z,0
2016-06-06T21:43:37.247Z,0
2016-06-06T21:44:37.281Z,0
2016-06-06T21:45:37.300Z,0
2016-06-06T21:46:37.317Z,0
2016-06-06T21:47:37.336Z,0
2016-06-06T21:48:37.355Z,0
2016-06-06T21:49:37.389Z,0
2016-06-06T21:50:38.078Z,0
2016-06-06T21:51:37.269Z,0
2016-06-06T21:52:37.444Z,0
2016-06-06T21:53:37.322Z,0
2016-06-06T21:54:37.496Z,0
2016-06-06T21:55:37.514Z,0
2016-06-06T21:56:37.532Z,0
2016-06-06T21:57:37.551Z,0
2016-06-06T21:58:37.569Z,0
2016-06-06T21:59:37.588Z,0
2016-06-06T22:00:37.605Z,0
2016-06-06T22:01:37.640Z,0
2016-06-06T22:02:37.658Z,0
2016-06-06T22:03:37.708Z,0
2016-06-06T22:04:37.538Z,0
2016-06-06T22:05:38.229Z,0
2016-06-06T22:06:37.746Z,0
2016-06-06T22:07:37.781Z,0
2016-06-06T22:08:37.784Z,0
2016-06-06T22:09:37.818Z,0